createdAt,value
2022-11-28T00:01:41.436Z,15.63
2022-11-28T00:04:08.641Z,15.50
2022-11-28T00:06:45.787Z,14.38
2022-11-28T00:09:13.337Z,8.02
2022-11-28T00:11:41.262Z,23.40
2022-11-28T00:14:08.284Z,17.02
2022-11-28T00:16:35.403Z,10.23
2022-11-28T00:19:02.565Z,13.82
2022-11-28T00:21:29.601Z,19.90
2022-11-28T00:23:56.485Z,9.50
2022-11-28T00:26:34.538Z,17.25
2022-11-28T00:29:01.974Z,16.05
2022-11-28T00:31:31.172Z,11.25
2022-11-28T00:33:58.441Z,11.73
2022-11-28T00:36:25.605Z,7.93
2022-11-28T00:38:52.560Z,15.70
2022-11-28T00:41:21.567Z,19.13
2022-11-28T00:43:48.951Z,6.57
2022-11-28T00:46:16.499Z,9.02
2022-11-28T00:48:43.723Z,16.50
2022-11-28T00:51:13.660Z,8.13
2022-11-28T00:53:42.421Z,20.80
2022-11-28T00:56:10.761Z,13.00
2022-11-28T00:58:38.259Z,18.77
2022-11-28T01:01:17.076Z,19.08
2022-11-28T01:03:44.460Z,12.02
2022-11-28T01:06:11.796Z,23.85
2022-11-28T01:08:38.801Z,13.48
2022-11-28T01:11:12.234Z,15.05
2022-11-28T01:13:39.976Z,18.15
2022-11-28T01:16:07.379Z,11.13
2022-11-28T01:18:34.438Z,14.40
2022-11-28T01:21:01.356Z,17.60
2022-11-28T01:23:28.279Z,17.83
2022-11-28T01:25:55.543Z,21.85
2022-11-28T01:28:22.616Z,10.32
2022-11-28T01:30:49.654Z,10.50
2022-11-28T01:33:16.565Z,18.25
2022-11-28T01:35:43.585Z,12.43
2022-11-28T01:38:10.488Z,17.88
2022-11-28T01:40:45.993Z,23.38
2022-11-28T01:43:12.936Z,22.52
2022-11-28T01:45:40.282Z,25.88
2022-11-28T01:48:07.466Z,21.90
2022-11-28T01:50:37.679Z,24.08
2022-11-28T01:53:06.877Z,14.02
2022-11-28T01:55:35.932Z,20.92
2022-11-28T01:58:03.102Z,11.02
2022-11-28T02:00:30.476Z,10.68
2022-11-28T02:03:09.904Z,20.05
2022-11-28T02:05:37.114Z,11.50
2022-11-28T02:08:04.824Z,10.85
2022-11-28T02:11:02.265Z,15.10
2022-11-28T02:13:49.228Z,26.15
2022-11-28T02:16:23.791Z,9.23
2022-11-28T02:19:28.692Z,17.92
2022-11-28T02:22:26.563Z,11.63
2022-11-28T02:25:21.146Z,13.30
2022-11-28T02:27:51.204Z,14.73
2022-11-28T02:30:49.621Z,14.05
2022-11-28T02:33:38.383Z,13.52
2022-11-28T02:36:13.162Z,17.15
2022-11-28T02:38:48.974Z,21.80
2022-11-28T02:41:33.727Z,13.15
2022-11-28T02:44:14.222Z,14.88
2022-11-28T02:47:03.057Z,13.20
2022-11-28T02:49:46.094Z,15.52
2022-11-28T02:52:30.200Z,15.93
2022-11-28T02:54:57.371Z,13.05
2022-11-28T02:57:38.609Z,18.02
2022-11-28T03:00:27.466Z,13.05
2022-11-28T03:03:04.517Z,11.25
2022-11-28T03:05:40.768Z,10.77
2022-11-28T03:08:56.435Z,8.80
2022-11-28T03:11:25.786Z,11.75
2022-11-28T03:13:54.908Z,5.60
2022-11-28T03:16:27.734Z,19.42
2022-11-28T03:19:05.252Z,10.38
2022-11-28T03:21:43.243Z,17.63
2022-11-28T03:24:18.365Z,19.73
2022-11-28T03:27:14.877Z,17.90
2022-11-28T03:29:46.994Z,8.77
2022-11-28T03:32:20.808Z,14.52
2022-11-28T03:34:50.283Z,17.13
2022-11-28T03:37:25.221Z,10.52
2022-11-28T03:39:55.675Z,9.73
2022-11-28T03:42:24.329Z,16.00
2022-11-28T03:45:08.335Z,11.02
2022-11-28T03:47:39.052Z,11.70
2022-11-28T03:50:08.584Z,13.30
2022-11-28T03:52:43.709Z,9.38
2022-11-28T03:55:25.067Z,13.95
2022-11-28T03:58:00.035Z,17.27
2022-11-28T04:00:27.419Z,11.88
2022-11-28T04:03:16.937Z,14.27
2022-11-28T04:06:18.432Z,23.63
2022-11-28T04:08:50.349Z,22.73
2022-11-28T04:11:20.699Z,19.55
2022-11-28T04:14:06.696Z,9.07
2022-11-28T04:16:55.452Z,20.33
2022-11-28T04:19:30.233Z,21.83
2022-11-28T04:22:03.775Z,8.35
2022-11-28T04:24:37.245Z,11.23
2022-11-28T04:27:06.531Z,8.77
2022-11-28T04:29:37.968Z,7.85
2022-11-28T04:32:05.560Z,10.23
2022-11-28T04:34:34.198Z,11.20
2022-11-28T04:37:05.479Z,12.82
2022-11-28T04:39:35.943Z,10.48
2022-11-28T04:42:07.024Z,13.25
2022-11-28T04:44:59.410Z,12.27
2022-11-28T04:47:26.928Z,11.05
2022-11-28T04:49:54.572Z,9.68
2022-11-28T04:52:45.787Z,9.77
2022-11-28T04:55:33.903Z,14.07
2022-11-28T04:58:32.838Z,4.13
2022-11-28T05:01:00.642Z,16.00
2022-11-28T05:03:28.850Z,11.43
2022-11-28T05:05:56.602Z,10.35
2022-11-28T05:08:24.111Z,10.00
2022-11-28T05:10:51.555Z,4.53
2022-11-28T05:14:10.683Z,15.20
2022-11-28T05:16:38.195Z,12.70
2022-11-28T05:19:05.725Z,14.30
2022-11-28T05:21:33.067Z,12.70
2022-11-28T05:24:00.575Z,10.15
2022-11-28T05:26:27.949Z,11.02
2022-11-28T05:28:57.077Z,13.75
2022-11-28T05:31:24.575Z,11.75
2022-11-28T05:33:54.111Z,7.95
2022-11-28T05:36:21.584Z,8.13
2022-11-28T05:38:48.987Z,10.23
2022-11-28T05:41:22.851Z,8.20
2022-11-28T05:43:50.718Z,9.30
2022-11-28T05:46:18.293Z,15.00
2022-11-28T05:48:46.115Z,17.35
2022-11-28T05:51:13.905Z,13.13
2022-11-28T05:53:41.294Z,7.47
2022-11-28T05:56:13.850Z,26.63
2022-11-28T05:58:41.273Z,11.93
2022-11-28T06:01:17.140Z,16.67
2022-11-28T06:03:44.690Z,8.35
2022-11-28T06:06:17.017Z,8.00
2022-11-28T06:08:44.607Z,8.15
2022-11-28T06:11:12.240Z,10.35
2022-11-28T06:13:39.560Z,16.13
2022-11-28T06:16:17.769Z,12.20
2022-11-28T06:18:45.525Z,3.72
2022-11-28T06:21:13.835Z,7.00
2022-11-28T06:23:41.325Z,11.05
2022-11-28T06:26:12.491Z,11.07
2022-11-28T06:28:40.015Z,5.80
2022-11-28T06:31:20.226Z,3.13
2022-11-28T06:33:47.998Z,8.65
2022-11-28T06:36:16.118Z,7.90
2022-11-28T06:38:43.547Z,12.50
2022-11-28T06:41:13.027Z,5.32
2022-11-28T06:43:40.603Z,7.53
2022-11-28T06:46:16.523Z,10.07
2022-11-28T06:48:45.244Z,7.38
2022-11-28T06:51:13.297Z,6.03
2022-11-28T06:53:40.998Z,8.25
2022-11-28T06:56:16.101Z,9.77
2022-11-28T06:58:44.016Z,14.45
2022-11-28T07:01:16.956Z,2.83
2022-11-28T07:03:50.222Z,15.68
2022-11-28T07:06:18.617Z,3.55
2022-11-28T07:08:46.416Z,2.33
2022-11-28T07:11:17.543Z,4.83
2022-11-28T07:13:48.203Z,9.52
2022-11-28T07:16:20.325Z,6.77
2022-11-28T07:18:47.993Z,12.75
2022-11-28T07:21:15.847Z,7.30
2022-11-28T07:23:43.796Z,4.40
2022-11-28T07:26:12.003Z,6.30
2022-11-28T07:28:39.651Z,9.02
2022-11-28T07:31:25.872Z,6.13
2022-11-28T07:33:53.483Z,7.32
2022-11-28T07:36:25.248Z,5.60
2022-11-28T07:38:54.028Z,3.15
2022-11-28T07:41:26.253Z,3.17
2022-11-28T07:43:58.986Z,14.15
2022-11-28T07:46:26.803Z,4.03
2022-11-28T07:48:54.525Z,3.73
2022-11-28T07:51:24.774Z,4.72
2022-11-28T07:53:54.985Z,7.90
2022-11-28T07:56:31.943Z,12.50
2022-11-28T07:59:07.422Z,9.20
2022-11-28T08:01:38.588Z,13.97
2022-11-28T08:04:07.060Z,3.97
2022-11-28T08:06:37.279Z,5.97
2022-11-28T08:09:04.832Z,7.22
2022-11-28T08:11:35.502Z,3.65
2022-11-28T08:14:03.123Z,17.17
2022-11-28T08:16:30.777Z,7.63
2022-11-28T08:19:00.145Z,13.45
2022-11-28T08:21:30.021Z,6.82
2022-11-28T08:23:59.800Z,6.32
2022-11-28T08:26:30.546Z,17.27
2022-11-28T08:28:59.302Z,6.85
2022-11-28T08:31:34.341Z,4.13
2022-11-28T08:34:03.543Z,7.82
2022-11-28T08:36:30.872Z,13.38
2022-11-28T08:39:22.264Z,7.53
2022-11-28T08:41:48.482Z,10.55
2022-11-28T08:44:16.313Z,2.70
2022-11-28T08:46:44.937Z,7.90
2022-11-28T08:49:12.165Z,9.07
2022-11-28T08:51:39.320Z,12.80
2022-11-28T08:54:06.543Z,2.28
2022-11-28T08:56:34.243Z,5.93
2022-11-28T08:59:01.470Z,16.48
2022-11-28T09:01:28.661Z,10.52
2022-11-28T09:03:56.144Z,15.38
2022-11-28T09:06:23.629Z,10.25
2022-11-28T09:08:52.672Z,11.23
2022-11-28T09:11:52.359Z,5.88
2022-11-28T09:17:29.955Z,9.77
2022-11-28T09:41:02.878Z,12.35
2022-11-28T09:43:42.959Z,15.02
2022-11-28T09:46:24.239Z,11.88
2022-11-28T09:48:53.303Z,2.55
2022-11-28T09:51:34.698Z,6.55
2022-11-28T09:54:22.273Z,11.98
2022-11-28T09:56:50.034Z,6.88
2022-11-28T09:59:35.973Z,6.95
2022-11-28T10:02:35.908Z,4.30
2022-11-28T10:05:56.789Z,6.72
2022-11-28T10:08:53.867Z,7.75
2022-11-28T10:11:49.028Z,1.65
2022-11-28T10:14:45.516Z,5.13
2022-11-28T10:17:18.361Z,3.95
2022-11-28T10:19:58.163Z,9.95
2022-11-28T10:22:42.200Z,5.18
2022-11-28T10:25:15.583Z,4.60
2022-11-28T10:27:42.552Z,2.78
2022-11-28T10:30:34.748Z,3.25
2022-11-28T10:33:14.297Z,2.88
2022-11-28T10:35:53.275Z,4.78
2022-11-28T10:38:25.811Z,3.60
2022-11-28T10:40:59.753Z,1.38
2022-11-28T10:43:38.742Z,5.03
2022-11-28T10:46:14.918Z,5.07
2022-11-28T10:51:20.480Z,4.57
2022-11-28T10:54:03.091Z,7.78
2022-11-28T10:56:48.570Z,3.80
2022-11-28T10:59:18.530Z,3.17
2022-11-28T11:01:49.890Z,1.33
2022-11-28T11:04:19.587Z,0.95
2022-11-28T11:07:14.865Z,2.63
2022-11-28T11:09:45.378Z,0.63
2022-11-28T11:12:26.602Z,0.20
2022-11-28T11:14:53.708Z,0.90
2022-11-28T11:17:35.909Z,3.50
2022-11-28T11:20:25.619Z,2.47
2022-11-28T11:23:01.887Z,1.35
2022-11-28T11:28:01.968Z,3.88
2022-11-28T11:30:38.752Z,3.03
2022-11-28T11:33:16.534Z,1.38
2022-11-28T11:35:45.643Z,1.33
2022-11-28T11:38:39.703Z,0.47
2022-11-28T11:41:40.709Z,2.63
2022-11-28T11:44:20.630Z,1.45
2022-11-28T11:47:03.929Z,1.02
2022-11-28T11:49:33.919Z,1.77
2022-11-28T11:52:12.802Z,2.20
2022-11-28T11:54:53.983Z,1.10
2022-11-28T11:57:37.175Z,2.10
2022-11-28T12:00:10.287Z,10.73
2022-11-28T12:02:46.759Z,3.33
2022-11-28T12:05:17.115Z,3.90
2022-11-28T12:08:02.935Z,2.95
2022-11-28T12:10:31.862Z,4.40
2022-11-28T12:12:58.939Z,4.78
2022-11-28T12:15:39.216Z,2.45
2022-11-28T12:18:12.114Z,2.75
2022-11-28T12:21:07.869Z,3.08
2022-11-28T12:23:48.352Z,2.60
2022-11-28T12:26:23.934Z,4.28
2022-11-28T12:29:03.158Z,1.67
2022-11-28T12:31:40.744Z,0.47
2022-11-28T12:34:18.091Z,1.13
2022-11-28T12:36:58.304Z,0.40
2022-11-28T12:39:54.476Z,0.90
2022-11-28T12:42:47.457Z,4.20
2022-11-28T12:45:40.732Z,4.95
2022-11-28T12:48:34.805Z,3.05
2022-11-28T12:51:11.798Z,1.52
2022-11-28T12:53:48.869Z,4.65
2022-11-28T12:56:33.201Z,4.25
2022-11-28T12:59:22.323Z,2.17
2022-11-28T13:02:05.222Z,1.05
2022-11-28T13:04:56.648Z,4.47
2022-11-28T13:07:51.121Z,3.63
2022-11-28T13:10:31.115Z,3.10
2022-11-28T13:13:05.628Z,2.40
2022-11-28T13:15:47.892Z,3.85
2022-11-28T13:18:46.507Z,1.80
2022-11-28T13:21:25.854Z,6.03
2022-11-28T13:23:52.859Z,5.00
2022-11-28T13:26:38.521Z,3.75
2022-11-28T13:29:30.083Z,1.92
2022-11-28T13:32:05.321Z,2.00
2022-11-28T13:34:32.571Z,2.47
2022-11-28T13:39:53.529Z,4.05
2022-11-28T13:43:02.393Z,4.78
2022-11-28T13:45:32.197Z,2.63
2022-11-28T13:48:00.780Z,3.58
2022-11-28T13:50:36.134Z,3.05
2022-11-28T13:53:06.013Z,5.43
2022-11-28T13:55:44.714Z,4.03
2022-11-28T13:58:22.350Z,22.25
2022-11-28T14:01:16.331Z,1.50
2022-11-28T14:04:08.130Z,1.77
2022-11-28T14:06:47.806Z,3.78
2022-11-28T14:09:14.863Z,0.98
2022-11-28T14:12:14.965Z,4.45
2022-11-28T14:15:08.379Z,3.88
2022-11-28T14:17:41.735Z,6.00
2022-11-28T14:20:42.992Z,5.10
2022-11-28T14:23:48.682Z,7.90
2022-11-28T14:26:36.238Z,2.78
2022-11-28T14:29:04.454Z,7.43
2022-11-28T14:31:38.528Z,4.35
2022-11-28T14:34:06.295Z,3.28
2022-11-28T14:36:39.139Z,4.38
2022-11-28T14:39:10.834Z,8.45
2022-11-28T14:42:09.858Z,5.72
2022-11-28T14:45:03.236Z,1.58
2022-11-28T14:47:42.789Z,1.13
2022-11-28T14:50:10.503Z,4.30
2022-11-28T14:52:44.443Z,4.80
2022-11-28T14:55:13.082Z,2.92
2022-11-28T14:57:53.829Z,4.28
2022-11-28T15:00:25.684Z,1.40
2022-11-28T15:03:04.736Z,3.67
2022-11-28T15:05:49.918Z,3.92
2022-11-28T15:08:30.789Z,3.17
2022-11-28T15:11:19.785Z,8.85
2022-11-28T15:13:59.287Z,5.07
2022-11-28T15:16:30.831Z,3.58
2022-11-28T15:19:21.224Z,8.35
2022-11-28T15:21:49.630Z,4.78
2022-11-28T15:24:26.064Z,2.70
2022-11-28T15:27:23.669Z,3.13
2022-11-28T15:30:01.652Z,6.93
2022-11-28T15:32:31.374Z,5.82
2022-11-28T15:35:04.440Z,5.00
2022-11-28T15:37:34.943Z,1.65
2022-11-28T15:40:06.331Z,2.20
2022-11-28T15:42:34.172Z,3.13
2022-11-28T15:45:11.580Z,2.67
2022-11-28T15:47:38.571Z,1.05
2022-11-28T15:50:22.460Z,2.70
2022-11-28T16:03:38.585Z,7.07
2022-11-28T16:08:37.305Z,4.07
2022-11-28T16:11:05.141Z,2.40
2022-11-28T16:13:32.862Z,1.20
2022-11-28T22:55:36.605Z,10.68
2022-11-28T22:58:30.767Z,5.15
2022-11-28T23:01:10.707Z,6.47
2022-11-28T23:04:31.167Z,7.25
2022-11-28T23:08:08.580Z,6.88
2022-11-28T23:10:39.789Z,5.07
2022-11-28T23:13:08.570Z,9.15
2022-11-28T23:15:53.009Z,6.85
2022-11-28T23:18:21.439Z,3.75
2022-11-28T23:20:49.243Z,5.53
2022-11-28T23:23:17.068Z,5.05
2022-11-28T23:25:45.718Z,12.07
2022-11-28T23:29:10.903Z,4.75
2022-11-28T23:31:39.731Z,7.07
2022-11-28T23:34:09.619Z,4.93
2022-11-28T23:36:42.353Z,2.45
2022-11-28T23:39:12.313Z,5.55
2022-11-28T23:43:05.697Z,5.00
2022-11-28T23:45:33.669Z,10.70
2022-11-28T23:48:03.344Z,6.93
2022-11-28T23:57:12.688Z,4.55
2022-11-28T23:59:40.158Z,6.15
